Time;durP1;ratioP1;P1;durP2;ratioP2;P2;SDS_P1;SDS_P2;PMS_P1;PMS_P2;Temp;Humidity;BMP_temperature;BMP_pressure;BME280_temperature;BME280_humidity;BME280_pressure;Samples;Min_cycle;Max_cycle;Signal;HPM_P1;HPM_P2
2022/08/22 00:00:29;;;;;;;5.15;1.48;;;;;;;;;;1023846;29;20027;-76
2022/08/22 00:01:06;;;;;;;8.75;1.73;;;;;;;;;;1021772;29;20028;-76
2022/08/22 00:01:41;;;;;;;3.65;1.42;;;;;;;;;;1023819;29;20480;-76
2022/08/22 00:02:35;;;;;;;4.80;1.80;;;;;;;;;;1023653;28;20033;-76
2022/08/22 00:03:22;;;;;;;5.75;2.30;;;;;;;;;;1014119;28;20405;-76
2022/08/22 00:04:11;;;;;;;2.50;1.67;;;;;;;;;;1024322;28;20499;-76
2022/08/22 00:04:50;;;;;;;5.10;1.88;;;;;;;;;;1024132;29;20532;-76
2022/08/22 00:05:21;;;;;;;4.32;2.35;;;;;;;;;;1024028;29;20489;-76
2022/08/22 00:06:00;;;;;;;4.93;1.83;;;;;;;;;;1024229;29;20019;-76
2022/08/22 00:06:40;;;;;;;5.45;1.70;;;;;;;;;;1023771;29;20094;-76
2022/08/22 00:07:10;;;;;;;;;;;;;;;;;;1024183;28;20542;-76
2022/08/22 00:07:45;;;;;;;4.95;2.05;;;;;;;;;;1023934;29;19922;-76
2022/08/22 00:08:27;;;;;;;3.60;1.73;;;;;;;;;;1023849;29;20407;-76
2022/08/22 00:09:03;;;;;;;13.52;2.53;;;;;;;;;;1024024;28;20035;-76
2022/08/22 00:09:36;;;;;;;4.00;1.80;;;;;;;;;;1024133;28;20137;-76
2022/08/22 00:10:10;;;;;;;6.35;2.05;;;;;;;;;;1023700;29;20643;-76
2022/08/22 00:10:47;;;;;;;6.45;1.77;;;;;;;;;;1019789;29;20114;-76
2022/08/22 00:11:24;;;;;;;6.57;1.85;;;;;;;;;;1019710;29;20535;-76
2022/08/22 00:12:02;;;;;;;5.45;2.40;;;;;;;;;;1022128;28;20404;-76
2022/08/22 00:12:44;;;;;;;5.22;2.13;;;;;;;;;;1026583;28;20031;-76
2022/08/22 00:13:24;;;;;;;5.50;2.97;;;;;;;;;;1024518;28;20023;-75
2022/08/22 00:14:16;;;;;;;5.75;1.40;;;;;;;;;;1024235;28;20069;-76
2022/08/22 00:14:49;;;;;;;3.95;2.17;;;;;;;;;;1023616;29;20030;-76
2022/08/22 00:15:58;;;;;;;4.05;1.90;;;;;;;;;;1019641;29;20539;-76
2022/08/22 00:16:32;;;;;;;3.58;1.40;;;;;;;;;;1001714;29;20037;-76
2022/08/22 00:17:19;;;;;;;4.03;1.98;;;;;;;;;;1005555;29;20061;-75
2022/08/22 00:18:08;;;;;;;3.80;1.13;;;;;;;;;;1008041;29;20021;-75
2022/08/22 00:19:02;;;;;;;9.88;4.13;;;;;;;;;;1008028;29;20471;-76
2022/08/22 00:19:40;;;;;;;14.13;1.98;;;;;;;;;;1004063;29;20029;-76
2022/08/22 00:20:20;;;;;;;6.18;1.77;;;;;;;;;;1004061;29;20117;-76
2022/08/22 00:20:55;;;;;;;3.90;1.60;;;;;;;;;;1000417;29;20030;-76
2022/08/22 00:21:38;;;;;;;7.15;3.15;;;;;;;;;;1003002;29;20430;-76
2022/08/22 00:22:21;;;;;;;5.80;1.77;;;;;;;;;;1004612;29;20612;-75
2022/08/22 00:22:55;;;;;;;9.75;2.10;;;;;;;;;;1027725;28;20065;-75
2022/08/22 00:23:32;;;;;;;8.48;2.40;;;;;;;;;;1023642;29;20047;-76
2022/08/22 00:24:16;;;;;;;3.80;1.95;;;;;;;;;;1023632;29;20102;-76
2022/08/22 00:24:53;;;;;;;4.13;1.33;;;;;;;;;;1020803;29;20146;-76
2022/08/22 00:25:27;;;;;;;4.95;2.58;;;;;;;;;;1023308;29;20440;-76
2022/08/22 00:26:23;;;;;;;3.53;1.35;;;;;;;;;;1023988;29;20030;-76
2022/08/22 00:26:58;;;;;;;2.60;1.27;;;;;;;;;;1024134;28;20607;-76
2022/08/22 00:27:36;;;;;;;4.80;1.10;;;;;;;;;;1024059;28;20060;-76
2022/08/22 00:28:07;;;;;;;5.65;1.83;;;;;;;;;;1027593;28;20022;-76
2022/08/22 00:28:46;;;;;;;6.00;2.38;;;;;;;;;;1023729;29;20128;-76
2022/08/22 00:29:20;;;;;;;12.40;1.70;;;;;;;;;;1023538;29;20019;-75
2022/08/22 00:29:53;;;;;;;14.45;2.35;;;;;;;;;;1022185;29;20082;-76
2022/08/22 00:30:25;;;;;;;7.38;1.85;;;;;;;;;;1021698;29;20090;-76
2022/08/22 00:30:59;;;;;;;5.55;1.65;;;;;;;;;;1023893;29;20031;-76
2022/08/22 00:31:39;;;;;;;9.35;2.55;;;;;;;;;;1024071;28;20027;-76
2022/08/22 00:32:32;;;;;;;3.97;2.15;;;;;;;;;;1027439;28;20030;-75
2022/08/22 00:33:10;;;;;;;10.98;2.38;;;;;;;;;;1019843;28;20042;-76
2022/08/22 00:33:49;;;;;;;5.32;2.28;;;;;;;;;;1027769;28;20023;-76
2022/08/22 00:34:23;;;;;;;3.97;2.03;;;;;;;;;;1023498;29;20023;-76
2022/08/22 00:35:00;;;;;;;6.88;2.47;;;;;;;;;;1023797;29;20031;-76
2022/08/22 00:35:33;;;;;;;6.53;2.25;;;;;;;;;;1023745;29;20023;-76
2022/08/22 00:36:08;;;;;;;10.07;2.75;;;;;;;;;;1023773;29;20070;-76
2022/08/22 00:36:46;;;;;;;15.35;2.28;;;;;;;;;;1027618;28;20121;-76
2022/08/22 00:37:26;;;;;;;12.73;2.03;;;;;;;;;;1027613;28;20115;-76
2022/08/22 00:38:04;;;;;;;6.60;1.98;;;;;;;;;;1027750;28;20101;-76
2022/08/22 00:38:38;;;;;;;11.80;2.22;;;;;;;;;;1024755;28;20027;-76
2022/08/22 00:39:12;;;;;;;12.70;2.25;;;;;;;;;;1023939;28;20030;-75
2022/08/22 00:39:46;;;;;;;7.72;2.25;;;;;;;;;;1024102;28;20460;-76
2022/08/22 00:40:22;;;;;;;6.10;1.92;;;;;;;;;;1023919;28;20395;-76
2022/08/22 00:41:11;;;;;;;8.02;2.13;;;;;;;;;;1024121;29;20530;-76
2022/08/22 00:41:49;;;;;;;8.53;1.83;;;;;;;;;;1024053;29;20079;-76
2022/08/22 00:42:28;;;;;;;11.63;2.28;;;;;;;;;;1023920;28;20301;-76
2022/08/22 00:43:17;;;;;;;8.38;2.67;;;;;;;;;;1024018;29;20089;-76
2022/08/22 00:44:13;;;;;;;5.07;2.47;;;;;;;;;;1024116;29;20042;-76
2022/08/22 00:44:44;;;;;;;14.07;3.72;;;;;;;;;;1024122;28;20023;-76
2022/08/22 00:45:17;;;;;;;4.95;1.95;;;;;;;;;;1023905;28;20042;-75
2022/08/22 00:46:06;;;;;;;18.55;2.47;;;;;;;;;;1024035;29;20027;-76
2022/08/22 00:47:00;;;;;;;10.90;1.60;;;;;;;;;;1024042;29;20049;-76
2022/08/22 00:47:36;;;;;;;18.48;2.65;;;;;;;;;;1024012;28;20088;-76
2022/08/22 00:48:13;;;;;;;4.00;2.10;;;;;;;;;;1023515;29;20027;-76
2022/08/22 00:49:07;;;;;;;12.55;1.67;;;;;;;;;;1023801;29;20059;-76
2022/08/22 00:49:46;;;;;;;14.88;2.17;;;;;;;;;;1023634;29;20027;-76
2022/08/22 00:50:35;;;;;;;7.22;1.70;;;;;;;;;;1027642;28;20034;-75
2022/08/22 00:51:17;;;;;;;16.95;2.25;;;;;;;;;;1023528;29;20129;-75
2022/08/22 00:52:17;;;;;;;5.20;1.48;;;;;;;;;;1023755;28;20031;-75
2022/08/22 00:52:50;;;;;;;6.80;2.22;;;;;;;;;;1013211;29;20024;-76
2022/08/22 00:53:44;;;;;;;9.35;2.20;;;;;;;;;;1023933;28;20039;-76
2022/08/22 00:54:18;;;;;;;10.88;2.05;;;;;;;;;;1018599;28;20028;-76
2022/08/22 00:54:56;;;;;;;10.57;2.33;;;;;;;;;;1024155;28;20039;-76
2022/08/22 00:55:30;;;;;;;5.22;2.25;;;;;;;;;;1027557;28;20117;-76
2022/08/22 00:56:17;;;;;;;6.75;1.58;;;;;;;;;;1027672;28;20502;-76
2022/08/22 00:57:02;;;;;;;5.75;1.80;;;;;;;;;;1027718;28;20062;-76
2022/08/22 00:57:51;;;;;;;11.00;2.10;;;;;;;;;;1024022;28;20506;-76
2022/08/22 00:58:31;;;;;;;6.97;2.17;;;;;;;;;;1023870;29;20058;-76
2022/08/22 00:59:19;;;;;;;6.78;2.17;;;;;;;;;;1023563;29;20023;-76
2022/08/22 01:00:03;;;;;;;5.03;1.50;;;;;;;;;;1027161;28;20027;-76
2022/08/22 01:00:38;;;;;;;8.90;1.73;;;;;;;;;;1027691;28;20034;-76
2022/08/22 01:01:10;;;;;;;9.35;1.60;;;;;;;;;;1027941;28;20037;-76
2022/08/22 01:02:04;;;;;;;6.55;2.03;;;;;;;;;;1028028;28;20118;-76
2022/08/22 01:02:38;;;;;;;9.27;3.63;;;;;;;;;;1020197;28;20032;-76
2022/08/22 01:03:27;;;;;;;7.00;1.92;;;;;;;;;;1027831;28;20114;-75
2022/08/22 01:04:16;;;;;;;7.85;1.95;;;;;;;;;;1026842;28;20060;-76
2022/08/22 01:05:10;;;;;;;4.73;1.60;;;;;;;;;;1027426;28;20037;-75
2022/08/22 01:05:46;;;;;;;16.50;2.05;;;;;;;;;;1019914;28;20248;-76
2022/08/22 01:06:19;;;;;;;13.52;2.28;;;;;;;;;;1026504;28;20035;-75
2022/08/22 01:07:22;;;;;;;15.27;2.70;;;;;;;;;;1027247;28;20801;-76
2022/08/22 01:08:01;;;;;;;3.00;1.73;;;;;;;;;;1017484;29;20092;-76
2022/08/22 01:08:35;;;;;;;4.07;2.03;;;;;;;;;;1020017;29;20036;-76
2022/08/22 01:09:08;;;;;;;11.23;2.20;;;;;;;;;;1023759;29;20032;-76
2022/08/22 01:10:14;;;;;;;15.07;1.90;;;;;;;;;;1022691;29;20083;-76
2022/08/22 01:10:47;;;;;;;4.07;1.48;;;;;;;;;;1012606;29;20116;-76
2022/08/22 01:11:21;;;;;;;5.85;1.70;;;;;;;;;;1013779;29;20048;-76
2022/08/22 01:11:57;;;;;;;16.02;2.60;;;;;;;;;;1012483;29;20052;-76
2022/08/22 01:12:36;;;;;;;5.57;2.42;;;;;;;;;;1012470;29;20505;-76
2022/08/22 01:13:25;;;;;;;5.75;2.60;;;;;;;;;;1012200;29;20068;-76
2022/08/22 01:14:14;;;;;;;11.27;2.88;;;;;;;;;;1024889;28;20026;-75
2022/08/22 01:14:48;;;;;;;9.45;2.88;;;;;;;;;;1024753;28;20031;-75
2022/08/22 01:15:21;;;;;;;17.45;2.80;;;;;;;;;;1026928;28;20031;-76
2022/08/22 01:15:59;;;;;;;7.05;3.22;;;;;;;;;;1029011;28;20424;-75
2022/08/22 01:16:47;;;;;;;7.82;3.00;;;;;;;;;;1028970;28;20031;-76
2022/08/22 01:17:36;;;;;;;6.40;2.63;;;;;;;;;;1028274;28;20115;-76
2022/08/22 01:18:13;;;;;;;9.02;2.78;;;;;;;;;;1028451;28;20031;-76
2022/08/22 01:18:49;;;;;;;9.35;3.33;;;;;;;;;;1028638;28;20027;-76
2022/08/22 01:19:22;;;;;;;9.02;3.85;;;;;;;;;;1028677;28;20436;-76
2022/08/22 01:20:12;;;;;;;18.63;3.80;;;;;;;;;;1028873;28;20419;-76
2022/08/22 01:21:03;;;;;;;26.05;3.65;;;;;;;;;;1028661;28;20391;-76
2022/08/22 01:21:49;;;;;;;9.82;3.15;;;;;;;;;;1028660;28;20031;-76
2022/08/22 01:22:38;;;;;;;12.82;3.40;;;;;;;;;;1028574;28;20394;-76
2022/08/22 01:23:24;;;;;;;13.70;4.35;;;;;;;;;;1028676;28;20030;-75
2022/08/22 01:24:26;;;;;;;14.80;4.70;;;;;;;;;;1028398;28;20081;-76
2022/08/22 01:25:19;;;;;;;10.10;3.05;;;;;;;;;;1020172;29;20159;-76
2022/08/22 01:25:52;;;;;;;10.88;4.30;;;;;;;;;;1021127;28;20031;-76
2022/08/22 01:26:28;;;;;;;9.23;3.42;;;;;;;;;;1028584;28;20022;-76
2022/08/22 01:27:08;;;;;;;13.13;3.78;;;;;;;;;;1027089;28;20141;-76
2022/08/22 01:27:50;;;;;;;11.05;3.92;;;;;;;;;;1028525;28;20031;-76
2022/08/22 01:28:26;;;;;;;7.22;2.67;;;;;;;;;;1028334;28;20031;-76
2022/08/22 01:29:23;;;;;;;15.50;3.97;;;;;;;;;;1028663;28;20030;-76
2022/08/22 01:30:15;;;;;;;14.98;3.20;;;;;;;;;;1028828;28;20475;-76
2022/08/22 01:30:45;;;;;;;17.23;3.22;;;;;;;;;;1027104;28;20447;-76
2022/08/22 01:31:22;;;;;;;23.27;5.20;;;;;;;;;;1028551;28;20022;-76
2022/08/22 01:31:52;;;;;;;23.20;3.45;;;;;;;;;;1027390;28;20022;-76
2022/08/22 01:32:32;;;;;;;12.23;2.65;;;;;;;;;;1027010;28;20074;-76
2022/08/22 01:33:19;;;;;;;15.05;3.05;;;;;;;;;;1027119;28;20493;-76
2022/08/22 01:34:02;;;;;;;17.00;2.65;;;;;;;;;;1024237;29;20173;-76
2022/08/22 01:34:33;;;;;;;19.30;4.10;;;;;;;;;;1025231;28;20034;-76
2022/08/22 01:35:18;;;;;;;12.65;3.42;;;;;;;;;;1028322;28;20081;-76
2022/08/22 01:35:54;;;;;;;13.80;3.47;;;;;;;;;;1027543;28;20129;-76
2022/08/22 01:36:44;;;;;;;14.45;3.17;;;;;;;;;;1026070;28;20437;-76
2022/08/22 01:37:41;;;;;;;14.32;3.33;;;;;;;;;;1023900;29;20444;-76
2022/08/22 01:38:24;;;;;;;26.33;3.42;;;;;;;;;;1021979;29;20416;-76
2022/08/22 01:39:21;;;;;;;12.98;2.10;;;;;;;;;;1025534;28;20023;-76
2022/08/22 01:39:51;;;;;;;4.03;1.30;;;;;;;;;;1024350;28;20462;-76
2022/08/22 01:41:19;;;;;;;7.05;1.60;;;;;;;;;;1034887;23;20081;-76
2022/08/22 01:42:01;;;;;;;9.13;1.83;;;;;;;;;;1027753;28;20042;-76
2022/08/22 01:42:51;;;;;;;6.40;1.75;;;;;;;;;;1026131;28;20026;-76
2022/08/22 01:43:27;;;;;;;7.47;1.80;;;;;;;;;;1025212;28;20459;-76
2022/08/22 01:44:06;;;;;;;14.80;1.50;;;;;;;;;;1025938;28;20045;-76
2022/08/22 01:44:49;;;;;;;7.28;1.30;;;;;;;;;;1028197;28;20030;-76
2022/08/22 01:45:35;;;;;;;3.28;1.17;;;;;;;;;;1026100;28;20027;-76
2022/08/22 01:46:18;;;;;;;3.72;1.63;;;;;;;;;;1027589;28;20026;-76
2022/08/22 01:47:01;;;;;;;4.78;1.33;;;;;;;;;;1028238;28;20022;-76
2022/08/22 01:47:50;;;;;;;8.75;1.52;;;;;;;;;;1028234;28;20828;-75
2022/08/22 01:48:24;;;;;;;11.40;1.95;;;;;;;;;;1027961;28;20054;-76
2022/08/22 01:49:03;;;;;;;8.43;1.23;;;;;;;;;;1028181;28;20031;-76
2022/08/22 01:49:34;;;;;;;12.20;1.77;;;;;;;;;;1027800;28;20026;-76
2022/08/22 01:50:24;;;;;;;22.30;2.47;;;;;;;;;;1027832;28;20038;-76
2022/08/22 01:51:02;;;;;;;6.35;0.65;;;;;;;;;;1027589;28;20111;-76
2022/08/22 01:51:39;;;;;;;5.25;1.55;;;;;;;;;;1024496;28;20032;-76
2022/08/22 01:52:27;;;;;;;10.38;1.35;;;;;;;;;;1023722;28;20484;-76
2022/08/22 01:52:58;;;;;;;10.55;1.45;;;;;;;;;;1018586;29;20520;-76
2022/08/22 01:53:28;;;;;;;10.52;1.50;;;;;;;;;;1023001;28;20069;-76
2022/08/22 01:54:02;;;;;;;4.45;1.50;;;;;;;;;;1022239;29;20083;-76
2022/08/22 01:54:35;;;;;;;10.27;2.47;;;;;;;;;;1023761;29;20387;-76
2022/08/22 01:55:06;;;;;;;8.77;1.73;;;;;;;;;;1020326;29;20028;-76
2022/08/22 01:55:55;;;;;;;16.08;3.00;;;;;;;;;;1024539;28;20058;-76
2022/08/22 01:56:30;;;;;;;10.32;1.85;;;;;;;;;;1027922;28;20030;-76
2022/08/22 01:57:04;;;;;;;26.20;4.57;;;;;;;;;;1027848;28;20027;-76
2022/08/22 01:57:48;;;;;;;35.10;4.72;;;;;;;;;;1028202;28;20038;-76
2022/08/22 01:58:20;;;;;;;12.43;3.53;;;;;;;;;;1027453;28;20123;-76
2022/08/22 01:58:57;;;;;;;18.15;3.65;;;;;;;;;;1027843;28;20488;-76
2022/08/22 01:59:33;;;;;;;11.80;2.17;;;;;;;;;;1027730;28;20035;-76
2022/08/22 02:00:14;;;;;;;12.82;2.00;;;;;;;;;;1028015;28;20030;-76
2022/08/22 02:01:03;;;;;;;11.80;2.83;;;;;;;;;;1026776;28;20019;-76
2022/08/22 02:01:39;;;;;;;23.38;3.60;;;;;;;;;;1028051;28;20034;-76
2022/08/22 02:02:25;;;;;;;13.68;2.35;;;;;;;;;;1027689;28;20038;-76
2022/08/22 02:02:58;;;;;;;14.57;2.65;;;;;;;;;;1027753;28;20110;-76
2022/08/22 02:03:52;;;;;;;20.48;4.07;;;;;;;;;;1027785;28;20101;-76
2022/08/22 02:04:38;;;;;;;11.75;2.38;;;;;;;;;;1017394;28;20028;-75
2022/08/22 02:05:17;;;;;;;10.57;2.80;;;;;;;;;;1027760;28;20026;-76
2022/08/22 02:05:48;;;;;;;11.75;2.22;;;;;;;;;;1026138;28;20118;-76
2022/08/22 02:06:37;;;;;;;19.98;3.22;;;;;;;;;;1027975;28;20057;-76
2022/08/22 02:07:21;;;;;;;14.18;4.20;;;;;;;;;;1027954;28;20026;-75
2022/08/22 02:08:04;;;;;;;13.45;3.30;;;;;;;;;;1027587;28;20442;-76
2022/08/22 02:08:37;;;;;;;8.43;2.25;;;;;;;;;;1023267;29;20392;-76
2022/08/22 02:09:08;;;;;;;13.75;2.05;;;;;;;;;;1024693;28;20158;-76
2022/08/22 02:09:41;;;;;;;17.90;3.05;;;;;;;;;;1027443;28;20525;-76
2022/08/22 02:10:26;;;;;;;22.85;3.42;;;;;;;;;;1027968;28;20077;-76
2022/08/22 02:10:57;;;;;;;10.55;2.22;;;;;;;;;;1026782;28;20055;-76
2022/08/22 02:11:49;;;;;;;19.70;2.70;;;;;;;;;;1027946;28;20022;-76
2022/08/22 02:12:23;;;;;;;13.63;3.03;;;;;;;;;;1026757;28;20029;-76
2022/08/22 02:13:17;;;;;;;10.50;1.73;;;;;;;;;;1027392;28;20407;-76
2022/08/22 02:13:53;;;;;;;2.80;1.48;;;;;;;;;;1019191;28;20032;-76
2022/08/22 02:14:26;;;;;;;4.40;1.20;;;;;;;;;;1026117;28;20126;-76
2022/08/22 02:15:04;;;;;;;5.13;2.95;;;;;;;;;;1027526;28;20022;-76
2022/08/22 02:15:44;;;;;;;12.93;1.38;;;;;;;;;;1025636;28;20073;-76
2022/08/22 02:16:34;;;;;;;8.73;1.58;;;;;;;;;;1026719;28;20121;-76
2022/08/22 02:17:15;;;;;;;9.75;3.08;;;;;;;;;;1026769;28;20058;-76
2022/08/22 02:17:48;;;;;;;5.18;0.90;;;;;;;;;;1027287;28;20467;-76
2022/08/22 02:18:28;;;;;;;11.50;2.33;;;;;;;;;;1027668;28;20133;-76
2022/08/22 02:19:10;;;;;;;5.05;1.10;;;;;;;;;;1025816;28;20056;-76
2022/08/22 02:19:47;;;;;;;2.90;0.82;;;;;;;;;;1025246;28;20114;-76
2022/08/22 02:20:17;;;;;;;4.75;1.20;;;;;;;;;;1027534;28;20062;-76
2022/08/22 02:20:57;;;;;;;11.35;1.15;;;;;;;;;;1027391;28;20076;-76
2022/08/22 02:21:48;;;;;;;14.25;1.33;;;;;;;;;;1026417;28;20031;-76
2022/08/22 02:22:21;;;;;;;9.45;1.20;;;;;;;;;;1019514;28;20428;-76
2022/08/22 02:23:10;;;;;;;5.68;1.23;;;;;;;;;;1026064;28;20024;-76
2022/08/22 02:23:49;;;;;;;3.38;1.13;;;;;;;;;;1026618;28;20030;-76
2022/08/22 02:24:25;;;;;;;4.05;0.93;;;;;;;;;;1026159;28;20368;-76
2022/08/22 02:25:01;;;;;;;2.60;0.82;;;;;;;;;;1027900;28;20038;-77
2022/08/22 02:25:52;;;;;;;7.90;0.95;;;;;;;;;;1027364;28;20110;-76
2022/08/22 02:26:25;;;;;;;3.55;1.40;;;;;;;;;;1027929;28;20042;-76
2022/08/22 02:27:05;;;;;;;3.95;1.27;;;;;;;;;;1026808;28;20035;-76
2022/08/22 02:27:43;;;;;;;4.40;1.85;;;;;;;;;;1026606;28;20093;-77
2022/08/22 02:28:31;;;;;;;7.43;2.90;;;;;;;;;;1024048;28;20038;-76
2022/08/22 02:29:34;;;;;;;13.30;1.08;;;;;;;;;;1027520;28;20030;-76
2022/08/22 02:30:07;;;;;;;7.90;1.23;;;;;;;;;;1013369;29;20120;-76
2022/08/22 02:30:49;;;;;;;11.27;1.08;;;;;;;;;;1013289;29;20925;-77
2022/08/22 02:31:24;;;;;;;2.42;1.08;;;;;;;;;;1024383;28;20039;-76
2022/08/22 02:31:56;;;;;;;11.25;1.23;;;;;;;;;;1026782;28;20023;-77
2022/08/22 02:32:34;;;;;;;3.10;1.20;;;;;;;;;;1029525;28;20073;-76
2022/08/22 02:33:07;;;;;;;7.00;2.03;;;;;;;;;;1029675;28;20122;-76
2022/08/22 02:33:44;;;;;;;5.88;1.17;;;;;;;;;;1031412;28;20038;-77
2022/08/22 02:34:27;;;;;;;6.70;1.67;;;;;;;;;;1028391;28;20113;-76
2022/08/22 02:35:07;;;;;;;5.78;1.13;;;;;;;;;;1026231;28;20473;-76
2022/08/22 02:35:50;;;;;;;9.55;1.65;;;;;;;;;;1025664;28;20031;-77
2022/08/22 02:36:21;;;;;;;6.22;1.15;;;;;;;;;;1026610;28;20066;-77
2022/08/22 02:37:07;;;;;;;6.13;1.33;;;;;;;;;;1025327;28;20450;-77
2022/08/22 02:38:13;;;;;;;7.47;1.58;;;;;;;;;;1025321;28;20395;-77
2022/08/22 02:39:06;;;;;;;13.52;1.70;;;;;;;;;;1006308;29;20033;-77
2022/08/22 02:39:56;;;;;;;4.90;0.95;;;;;;;;;;1005284;29;20036;-77
2022/08/22 02:40:36;;;;;;;12.00;1.98;;;;;;;;;;993571;29;20043;-76
2022/08/22 02:41:25;;;;;;;5.68;1.17;;;;;;;;;;1010996;29;20040;-77
2022/08/22 02:42:05;;;;;;;6.13;1.70;;;;;;;;;;1025676;28;20381;-77
2022/08/22 02:42:40;;;;;;;6.63;1.85;;;;;;;;;;1027483;28;20043;-77
2022/08/22 02:43:11;;;;;;;4.97;1.88;;;;;;;;;;1027321;28;20495;-76
2022/08/22 02:43:51;;;;;;;5.75;1.52;;;;;;;;;;1027210;28;20031;-76
2022/08/22 02:44:25;;;;;;;4.63;1.80;;;;;;;;;;1026490;28;20050;-76
2022/08/22 02:45:02;;;;;;;7.93;1.52;;;;;;;;;;1027288;28;20037;-76
2022/08/22 02:45:41;;;;;;;12.82;1.63;;;;;;;;;;1027078;28;20122;-76
2022/08/22 02:46:24;;;;;;;14.85;1.30;;;;;;;;;;1026924;28;20034;-77
2022/08/22 02:47:13;;;;;;;8.20;1.52;;;;;;;;;;1025870;28;20027;-77
2022/08/22 02:47:58;;;;;;;3.97;1.48;;;;;;;;;;1024189;28;20038;-77
2022/08/22 02:48:37;;;;;;;7.65;1.50;;;;;;;;;;1027309;28;20065;-76
2022/08/22 02:49:18;;;;;;;13.60;1.38;;;;;;;;;;1026209;28;20122;-77
2022/08/22 02:50:12;;;;;;;23.95;2.03;;;;;;;;;;1027342;28;20121;-76
2022/08/22 02:50:46;;;;;;;12.50;1.35;;;;;;;;;;1016282;28;20041;-77
2022/08/22 02:51:19;;;;;;;10.10;1.40;;;;;;;;;;1026654;28;20031;-77
2022/08/22 02:51:55;;;;;;;5.20;3.17;;;;;;;;;;1025443;28;21080;-77
2022/08/22 02:52:40;;;;;;;6.38;1.40;;;;;;;;;;1027650;28;20066;-76
2022/08/22 02:53:20;;;;;;;9.68;1.55;;;;;;;;;;1025713;28;20153;-76
2022/08/22 02:53:51;;;;;;;10.55;1.63;;;;;;;;;;1019495;28;20091;-76
2022/08/22 02:54:40;;;;;;;14.93;2.03;;;;;;;;;;1024733;28;20082;-76
2022/08/22 02:55:28;;;;;;;12.55;3.13;;;;;;;;;;1027835;28;20034;-77
2022/08/22 02:56:05;;;;;;;6.35;1.48;;;;;;;;;;1026410;28;20027;-77
2022/08/22 02:56:45;;;;;;;7.93;1.60;;;;;;;;;;1026315;28;20022;-77
2022/08/22 02:57:34;;;;;;;3.78;1.33;;;;;;;;;;1026083;28;20059;-77
2022/08/22 02:58:07;;;;;;;4.47;1.23;;;;;;;;;;1026526;28;20034;-77
2022/08/22 02:58:44;;;;;;;5.15;1.65;;;;;;;;;;1025838;28;20135;-77
2022/08/22 02:59:23;;;;;;;4.70;1.80;;;;;;;;;;1027396;28;20027;-76
2022/08/22 03:00:01;;;;;;;10.07;1.65;;;;;;;;;;1025992;28;20019;-76
2022/08/22 03:01:06;;;;;;;8.30;1.20;;;;;;;;;;1024541;28;20038;-77
2022/08/22 03:01:42;;;;;;;2.88;1.08;;;;;;;;;;1024453;28;20027;-77
2022/08/22 03:02:26;;;;;;;1.90;1.00;;;;;;;;;;1026739;28;20054;-76
2022/08/22 03:03:13;;;;;;;1.75;0.85;;;;;;;;;;1027111;28;20524;-76
2022/08/22 03:03:45;;;;;;;5.72;1.17;;;;;;;;;;1026343;28;20046;-76
2022/08/22 03:04:25;;;;;;;1.58;0.88;;;;;;;;;;1026581;28;20023;-76
2022/08/22 03:04:58;;;;;;;8.88;1.30;;;;;;;;;;1025619;28;20475;-77
2022/08/22 03:05:35;;;;;;;20.65;1.20;;;;;;;;;;1027267;28;20101;-76
2022/08/22 03:06:38;;;;;;;19.77;1.30;;;;;;;;;;1026324;28;20085;-76
2022/08/22 03:07:21;;;;;;;3.50;1.38;;;;;;;;;;1013958;29;20488;-76
2022/08/22 03:08:11;;;;;;;8.00;1.30;;;;;;;;;;1012996;29;20119;-76
2022/08/22 03:09:01;;;;;;;7.55;1.77;;;;;;;;;;1026312;28;20062;-77
2022/08/22 03:09:43;;;;;;;5.18;1.42;;;;;;;;;;1027643;28;20081;-77
2022/08/22 03:10:22;;;;;;;12.23;2.63;;;;;;;;;;1026779;28;20023;-76
2022/08/22 03:11:42;;;;;;;7.35;1.13;;;;;;;;;;1031703;23;20612;-77
2022/08/22 03:12:17;;;;;;;12.55;1.05;;;;;;;;;;1027614;28;20077;-76
2022/08/22 03:12:53;;;;;;;10.57;2.20;;;;;;;;;;1027445;28;20035;-77
2022/08/22 03:13:44;;;;;;;5.40;2.10;;;;;;;;;;1025239;28;20201;-76
2022/08/22 03:14:19;;;;;;;10.48;1.58;;;;;;;;;;1014510;28;20465;-76
2022/08/22 03:15:08;;;;;;;6.45;2.22;;;;;;;;;;1025154;28;20400;-77
2022/08/22 03:15:51;;;;;;;9.18;1.45;;;;;;;;;;1026879;28;20118;-77
2022/08/22 03:16:24;;;;;;;4.05;1.17;;;;;;;;;;1026427;28;20483;-76
2022/08/22 03:17:05;;;;;;;2.95;1.45;;;;;;;;;;1026666;28;20727;-76
2022/08/22 03:17:39;;;;;;;3.05;0.90;;;;;;;;;;1027548;28;20037;-76
2022/08/22 03:18:19;;;;;;;4.13;1.23;;;;;;;;;;1026620;28;20126;-76
2022/08/22 03:19:03;;;;;;;6.63;1.55;;;;;;;;;;1025331;28;20502;-77
2022/08/22 03:19:47;;;;;;;4.90;0.57;;;;;;;;;;1027252;28;20038;-77
2022/08/22 03:20:34;;;;;;;4.85;0.73;;;;;;;;;;1025638;28;20023;-77
2022/08/22 03:21:14;;;;;;;10.80;1.33;;;;;;;;;;1026409;28;20022;-77
2022/08/22 03:21:57;;;;;;;6.55;1.23;;;;;;;;;;1026759;28;20065;-77
2022/08/22 03:22:46;;;;;;;6.88;1.42;;;;;;;;;;1027522;28;20470;-77
2022/08/22 03:23:30;;;;;;;7.00;1.38;;;;;;;;;;1027151;28;20019;-77
2022/08/22 03:24:06;;;;;;;3.00;1.20;;;;;;;;;;1025527;28;20069;-77
2022/08/22 03:24:52;;;;;;;11.50;2.25;;;;;;;;;;1026763;28;20038;-77
2022/08/22 03:25:28;;;;;;;10.60;2.55;;;;;;;;;;1026710;28;20027;-76
2022/08/22 03:25:59;;;;;;;3.20;1.23;;;;;;;;;;1026758;28;20027;-77
2022/08/22 03:26:37;;;;;;;7.93;1.65;;;;;;;;;;1026111;28;20467;-77
2022/08/22 03:27:13;;;;;;;8.93;1.80;;;;;;;;;;1026092;28;20029;-77
2022/08/22 03:27:49;;;;;;;7.53;0.98;;;;;;;;;;1026200;28;20074;-77
2022/08/22 03:28:23;;;;;;;2.50;0.77;;;;;;;;;;1025743;28;20064;-77
2022/08/22 03:29:16;;;;;;;3.25;1.00;;;;;;;;;;1024645;28;20063;-77
2022/08/22 03:29:50;;;;;;;1.45;0.77;;;;;;;;;;1026808;28;20034;-77
2022/08/22 03:30:25;;;;;;;6.93;1.17;;;;;;;;;;1026493;28;20022;-76
2022/08/22 03:30:57;;;;;;;3.17;1.17;;;;;;;;;;1025747;28;20106;-77
2022/08/22 03:31:29;;;;;;;5.75;1.52;;;;;;;;;;1025918;28;20026;-77
2022/08/22 03:32:15;;;;;;;4.93;2.38;;;;;;;;;;1024936;28;20597;-77
2022/08/22 03:32:48;;;;;;;10.05;1.33;;;;;;;;;;1026412;28;20082;-77
2022/08/22 03:33:20;;;;;;;3.03;1.25;;;;;;;;;;1025274;28;20015;-77
2022/08/22 03:34:09;;;;;;;6.32;1.13;;;;;;;;;;1025998;28;20027;-77
2022/08/22 03:34:58;;;;;;;12.27;1.75;;;;;;;;;;1025175;28;20790;-76
2022/08/22 03:35:28;;;;;;;13.20;1.70;;;;;;;;;;1026399;28;20022;-76
2022/08/22 03:36:05;;;;;;;3.17;1.20;;;;;;;;;;1027647;28;20018;-76
2022/08/22 03:36:36;;;;;;;4.25;0.98;;;;;;;;;;1025815;28;20031;-77
2022/08/22 03:37:10;;;;;;;10.07;2.20;;;;;;;;;;1026663;28;20019;-77
2022/08/22 03:37:41;;;;;;;7.15;1.38;;;;;;;;;;1025305;28;20023;-77
2022/08/22 03:38:12;;;;;;;6.68;1.30;;;;;;;;;;1025419;28;20458;-77
2022/08/22 03:39:07;;;;;;;8.07;2.80;;;;;;;;;;1025743;28;20029;-77
2022/08/22 03:39:44;;;;;;;10.88;1.70;;;;;;;;;;1023926;28;20023;-77
2022/08/22 03:40:30;;;;;;;6.20;1.58;;;;;;;;;;1027955;28;20434;-77
2022/08/22 03:41:22;;;;;;;16.08;1.67;;;;;;;;;;1023750;28;20077;-77
2022/08/22 03:41:59;;;;;;;3.95;1.27;;;;;;;;;;1023715;28;20027;-77
2022/08/22 03:42:54;;;;;;;3.38;0.93;;;;;;;;;;1024339;28;20027;-77
2022/08/22 03:43:36;;;;;;;4.38;1.15;;;;;;;;;;1028152;28;20034;-77
2022/08/22 03:44:19;;;;;;;6.68;1.25;;;;;;;;;;1026702;28;20101;-77
2022/08/22 03:44:55;;;;;;;10.48;1.27;;;;;;;;;;1026543;28;20059;-76
2022/08/22 03:45:47;;;;;;;9.00;1.83;;;;;;;;;;1025485;28;20022;-77
2022/08/22 03:46:30;;;;;;;14.88;1.83;;;;;;;;;;1025477;28;20030;-76
2022/08/22 03:47:06;;;;;;;9.98;1.65;;;;;;;;;;1026611;28;20030;-76
2022/08/22 03:47:45;;;;;;;14.20;1.67;;;;;;;;;;1025845;28;20024;-76
2022/08/22 03:48:27;;;;;;;5.03;1.30;;;;;;;;;;1026647;28;20054;-76
2022/08/22 03:49:17;;;;;;;7.95;1.80;;;;;;;;;;1026953;28;20019;-77
2022/08/22 03:49:53;;;;;;;18.20;1.85;;;;;;;;;;1026761;28;20097;-77
2022/08/22 03:50:38;;;;;;;7.47;1.73;;;;;;;;;;1025981;28;20027;-77
2022/08/22 03:51:09;;;;;;;4.97;1.42;;;;;;;;;;1025507;28;20034;-77
2022/08/22 03:51:54;;;;;;;8.73;1.75;;;;;;;;;;1025519;28;20027;-77
2022/08/22 03:52:33;;;;;;;3.90;1.50;;;;;;;;;;1020787;29;20474;-76
2022/08/22 03:53:29;;;;;;;4.18;1.30;;;;;;;;;;1022422;29;20066;-77
2022/08/22 03:54:15;;;;;;;6.55;2.35;;;;;;;;;;1025736;28;20033;-77
2022/08/22 03:54:51;;;;;;;5.47;1.42;;;;;;;;;;1027067;28;20118;-77
2022/08/22 03:55:32;;;;;;;7.32;1.50;;;;;;;;;;1024908;28;20023;-77
2022/08/22 03:56:21;;;;;;;5.53;1.38;;;;;;;;;;1026826;28;20019;-75
2022/08/22 03:57:10;;;;;;;4.82;1.10;;;;;;;;;;1026954;28;20058;-76
2022/08/22 03:58:00;;;;;;;5.97;1.27;;;;;;;;;;1027495;28;20106;-76
2022/08/22 03:58:34;;;;;;;6.22;1.60;;;;;;;;;;1026822;28;20498;-76
2022/08/22 03:59:10;;;;;;;3.00;1.63;;;;;;;;;;1023573;28;20049;-76
2022/08/22 04:00:10;;;;;;;2.88;1.23;;;;;;;;;;1022603;28;20109;-76
2022/08/22 04:00:40;;;;;;;;;;;;;;;;;;1009242;29;20107;-76
2022/08/22 04:01:14;;;;;;;10.25;1.85;;;;;;;;;;1024428;28;20313;-76
2022/08/22 04:02:05;;;;;;;9.90;1.65;;;;;;;;;;1004957;28;20041;-76
2022/08/22 04:02:35;;;;;;;3.45;1.17;;;;;;;;;;1026309;28;20121;-76
2022/08/22 04:03:24;;;;;;;6.03;1.45;;;;;;;;;;1025774;28;20459;-76
2022/08/22 04:04:10;;;;;;;1.43;0.80;;;;;;;;;;1025796;28;20058;-76
2022/08/22 04:05:01;;;;;;;7.30;1.33;;;;;;;;;;1025029;28;20471;-77
2022/08/22 04:05:50;;;;;;;4.95;1.10;;;;;;;;;;1015917;28;20510;-76
2022/08/22 04:06:24;;;;;;;1.85;0.95;;;;;;;;;;1025771;28;20023;-76